Hanjin Robertsbank — DSNW9 — position and weather

sailwx.info

Track history (hours):
 
Tides and Currents Weather Stations Pressure Air Temp Water Temp Dewpoint Dewpoint Depression Visibility Wind Speed Wind Dir Waves Ship Positions

Hanjin Robertsbank

Last reported at 2018-May-09 01:47 UTC. Time now 2018-May-24 21:22 UTC.
Position S 33°44' E 033°04'.
Warning: this ship's position is 15 days out of date.

Length 268 m; draft 16.3 m.

Type: Cargo ship. MMSI: 440386000.

Date/timePositionNaut miles runAvg speedWind from/ knotsBaromVisibWave heightAir tempDewpointWater temp
2018-May-09 01:47S 33°44' E 033°04'17 9.9
2018-May-09 00:06S 33°46' E 032°44'2 9.7
2018-May-08 23:52S 33°46' E 032°41'6 9.7
2018-May-08 23:16S 33°47' E 032°34'11 9.7
2018-May-08 22:08S 33°48' E 032°21'4 9.8
2018-May-08 21:41S 33°48' E 032°16'2 9.7
2018-May-08 21:30S 33°48' E 032°14'5 9.7
2018-May-08 20:59S 33°49' E 032°08'5 9.5
2018-May-08 20:30S 33°50' E 032°02'5 9.3
2018-May-08 20:00S 33°50' E 031°57'5 9.5
2018-May-08 19:30S 33°51' E 031°51'5 9.5
2018-May-08 19:00S 33°51' E 031°45'5 9.4
2018-May-08 18:30S 33°51' E 031°40'5 9.4
2018-May-08 18:00S 33°52' E 031°34'9 9.5
2018-May-08 17:01S 33°53' E 031°23'0 9.6
2018-May-08 17:00S 33°53' E 031°23'5 9.4
2018-May-08 16:30S 33°54' E 031°17'5 9.6
2018-May-08 16:00S 33°54' E 031°11'5 9.6
2018-May-08 15:30S 33°55' E 031°06'5 9.5
2018-May-08 14:59S 33°55' E 030°60'5 9.5
2018-May-08 14:30S 33°55' E 030°54'5 9.6
2018-May-08 14:00S 33°56' E 030°48'5 9.7
2018-May-08 13:29S 33°56' E 030°42'5 9.8
2018-May-08 13:00S 33°57' E 030°37'5 9.8
2018-May-08 12:30S 33°57' E 030°31'510.0
2018-May-08 12:00S 33°58' E 030°25'510.1
2018-May-08 11:29S 33°58' E 030°18'510.1
2018-May-08 10:59S 33°59' E 030°12'510.1
2018-May-08 10:30S 33°60' E 030°07'5 9.9
2018-May-08 10:00S 33°60' E 030°01'5 9.9
2018-May-08 09:30S 34°01' E 029°55'5 9.8
2018-May-08 09:00S 34°01' E 029°49'5 9.9
2018-May-08 08:28S 34°02' E 029°42'5 9.8
2018-May-08 08:00S 34°03' E 029°37'  
Track history (hours):
 
Tides and Currents Weather Stations Pressure Air Temp Water Temp Dewpoint Dewpoint Depression Visibility Wind Speed Wind Dir Waves Ship Positions

Hanjin Robertsbank

Last reported at 2018-May-09 01:47 UTC. Time now 2018-May-24 21:22 UTC.
Position S 33°44' E 033°04'.
Warning: this ship's position is 15 days out of date.

Length 268 m; draft 16.3 m.

Type: Cargo ship. MMSI: 440386000.

Date/timePositionNaut miles runAvg speedWind from/ knotsBaromVisibWave heightAir tempDewpointWater temp
2018-May-09 01:47S 33°44' E 033°04'17 9.9
2018-May-09 00:06S 33°46' E 032°44'2 9.7
2018-May-08 23:52S 33°46' E 032°41'6 9.7
2018-May-08 23:16S 33°47' E 032°34'11 9.7
2018-May-08 22:08S 33°48' E 032°21'4 9.8
2018-May-08 21:41S 33°48' E 032°16'2 9.7
2018-May-08 21:30S 33°48' E 032°14'5 9.7
2018-May-08 20:59S 33°49' E 032°08'5 9.5
2018-May-08 20:30S 33°50' E 032°02'5 9.3
2018-May-08 20:00S 33°50' E 031°57'5 9.5
2018-May-08 19:30S 33°51' E 031°51'5 9.5
2018-May-08 19:00S 33°51' E 031°45'5 9.4
2018-May-08 18:30S 33°51' E 031°40'5 9.4
2018-May-08 18:00S 33°52' E 031°34'9 9.5
2018-May-08 17:01S 33°53' E 031°23'0 9.6
2018-May-08 17:00S 33°53' E 031°23'5 9.4
2018-May-08 16:30S 33°54' E 031°17'5 9.6
2018-May-08 16:00S 33°54' E 031°11'5 9.6
2018-May-08 15:30S 33°55' E 031°06'5 9.5
2018-May-08 14:59S 33°55' E 030°60'5 9.5
2018-May-08 14:30S 33°55' E 030°54'5 9.6
2018-May-08 14:00S 33°56' E 030°48'5 9.7
2018-May-08 13:29S 33°56' E 030°42'5 9.8
2018-May-08 13:00S 33°57' E 030°37'5 9.8
2018-May-08 12:30S 33°57' E 030°31'510.0
2018-May-08 12:00S 33°58' E 030°25'510.1
2018-May-08 11:29S 33°58' E 030°18'510.1
2018-May-08 10:59S 33°59' E 030°12'510.1
2018-May-08 10:30S 33°60' E 030°07'5 9.9
2018-May-08 10:00S 33°60' E 030°01'5 9.9
2018-May-08 09:30S 34°01' E 029°55'5 9.8
2018-May-08 09:00S 34°01' E 029°49'5 9.9
2018-May-08 08:28S 34°02' E 029°42'5 9.8
2018-May-08 08:00S 34°03' E 029°37'  

Dump ship's entire track history